createdAt,value
2023-05-11T00:04:57.697Z,53.2
2023-05-11T00:10:16.697Z,52.9
2023-05-11T00:15:35.619Z,53
2023-05-11T00:20:53.801Z,53.3
2023-05-11T00:26:11.958Z,53.3
2023-05-11T00:31:31.144Z,53.6
2023-05-11T00:36:49.534Z,53.9
2023-05-11T00:42:07.800Z,52.9
2023-05-11T00:47:26.160Z,53.8
2023-05-11T00:52:45.644Z,53.7
2023-05-11T00:58:03.885Z,53
2023-05-11T01:03:22.442Z,53
2023-05-11T01:08:40.889Z,53.8
2023-05-11T01:13:59.038Z,54
2023-05-11T01:19:17.398Z,54.4
2023-05-11T01:24:35.960Z,54
2023-05-11T01:29:54.272Z,53.6
2023-05-11T01:35:12.654Z,54.5
2023-05-11T01:40:30.989Z,53.8
2023-05-11T01:45:52.130Z,53.7
2023-05-11T01:51:10.160Z,53.4
2023-05-11T01:56:28.535Z,53.2
2023-05-11T02:01:47.129Z,54.1
2023-05-11T02:07:05.513Z,53.7
2023-05-11T02:12:24.063Z,54
2023-05-11T02:17:42.419Z,54.4
2023-05-11T02:23:00.680Z,54.2
2023-05-11T02:28:19.039Z,54.5
2023-05-11T02:33:37.369Z,53.3
2023-05-11T02:38:55.546Z,54.3
2023-05-11T02:44:13.740Z,53.5
2023-05-11T02:49:31.869Z,53.6
2023-05-11T02:54:50.005Z,53.6
2023-05-11T03:00:08.234Z,54.4
2023-05-11T03:05:26.542Z,54.2
2023-05-11T03:10:44.904Z,54.5
2023-05-11T03:16:03.351Z,53.5
2023-05-11T03:21:21.718Z,53.5
2023-05-11T03:26:40.281Z,54.5
2023-05-11T03:31:58.798Z,53.1
2023-05-11T03:37:17.168Z,53.9
2023-05-11T03:42:35.368Z,53.9
2023-05-11T03:47:53.824Z,53.6
2023-05-11T03:53:12.188Z,52.8
2023-05-11T03:58:30.323Z,52.5
2023-05-11T04:03:49.324Z,52.2
2023-05-11T04:09:07.633Z,52.7
2023-05-11T04:14:26.278Z,52.7
2023-05-11T04:19:44.657Z,51.7
2023-05-11T04:25:03.062Z,52.3
2023-05-11T04:30:22.132Z,51.6
2023-05-11T04:35:40.779Z,52.6
2023-05-11T04:41:00.066Z,47.1
2023-05-11T04:46:18.315Z,43.9
2023-05-11T04:51:36.735Z,42.8
2023-05-11T04:56:54.871Z,42.6
2023-05-11T05:02:13.579Z,46.9
2023-05-11T05:07:32.100Z,47.6
2023-05-11T05:12:50.693Z,48.5
2023-05-11T05:18:09.231Z,49
2023-05-11T05:23:27.791Z,48.2
2023-05-11T05:28:45.949Z,48.4
2023-05-11T05:34:04.495Z,49.4
2023-05-11T05:39:07.493Z,49.2
2023-05-11T05:44:10.242Z,49
2023-05-11T05:49:13.196Z,49.6
2023-05-11T05:54:31.627Z,48.9
2023-05-11T05:59:51.173Z,49.2
2023-05-11T06:05:09.313Z,49.4
2023-05-11T06:10:27.904Z,49.6
2023-05-11T06:15:46.310Z,49.3
2023-05-11T06:21:05.023Z,49.1
2023-05-11T06:26:23.394Z,49.6
2023-05-11T06:31:41.914Z,49.2
2023-05-11T06:37:00.454Z,48.8
2023-05-11T06:42:18.687Z,48.8
2023-05-11T06:47:37.058Z,49.5
2023-05-11T06:52:55.215Z,49.3
2023-05-11T06:58:13.425Z,49.1
2023-05-11T07:03:31.666Z,49.8
2023-05-11T07:08:49.817Z,49
2023-05-11T07:14:07.805Z,49.5
2023-05-11T07:19:26.168Z,49.7
2023-05-11T07:24:44.306Z,49.6
2023-05-11T07:30:02.492Z,49.1
2023-05-11T07:35:24.502Z,49.3
2023-05-11T07:40:42.996Z,49.6
2023-05-11T07:46:01.451Z,49.3
2023-05-11T07:51:20.157Z,49.3
2023-05-11T07:56:38.724Z,48.6
2023-05-11T08:01:42.268Z,48.6
2023-05-11T08:07:00.453Z,48.6
2023-05-11T08:12:18.858Z,49.4
2023-05-11T08:17:37.528Z,49.4
2023-05-11T08:22:56.013Z,48.7
2023-05-11T08:28:14.544Z,49.1
2023-05-11T08:33:39.570Z,48.5
2023-05-11T08:39:00.114Z,48.5
2023-05-11T08:44:18.271Z,48.6
2023-05-11T08:49:36.869Z,49.5
2023-05-11T08:54:55.200Z,49.3
2023-05-11T09:00:14.034Z,49.5
2023-05-11T09:05:32.644Z,49.2
2023-05-11T09:10:51.056Z,48.5
2023-05-11T09:16:37.731Z,48.6
2023-05-11T09:21:56.258Z,49.3
2023-05-11T09:27:21.477Z,49.5
2023-05-11T09:32:39.878Z,48.6
2023-05-11T09:37:58.312Z,48.7
2023-05-11T09:43:17.136Z,48.7
2023-05-11T09:48:35.275Z,48.7
2023-05-11T09:53:53.637Z,48.7
2023-05-11T09:59:11.810Z,49.5
2023-05-11T10:04:30.622Z,49.4
2023-05-11T10:09:49.217Z,49.4
2023-05-11T10:14:51.980Z,49.5
2023-05-11T10:20:10.154Z,48.7
2023-05-11T10:25:28.711Z,49.3
2023-05-11T10:30:47.079Z,49.2
2023-05-11T10:36:05.425Z,48.5
2023-05-11T10:41:23.775Z,48.4
2023-05-11T10:46:42.324Z,48.8
2023-05-11T10:52:00.655Z,48.4
2023-05-11T10:57:19.145Z,49.2
2023-05-11T11:02:37.390Z,48.4
2023-05-11T11:07:55.864Z,49.1
2023-05-11T11:13:14.629Z,47.9
2023-05-11T11:18:32.834Z,48
2023-05-11T11:23:51.355Z,47.6
2023-05-11T11:29:09.570Z,47.5
2023-05-11T11:34:28.207Z,48.4
2023-05-11T11:39:46.365Z,47.3
2023-05-11T11:45:04.706Z,47.9
2023-05-11T11:50:23.091Z,47.7
2023-05-11T11:55:41.623Z,48.6
2023-05-11T12:01:00.696Z,48.6
2023-05-11T12:06:18.887Z,48.7
2023-05-11T12:11:37.273Z,48.8
2023-05-11T12:16:40.097Z,48.8
2023-05-11T12:21:58.513Z,48.7
2023-05-11T12:27:12.353Z,48.6
2023-05-11T12:32:30.974Z,48.3
2023-05-11T12:37:49.455Z,47.7
2023-05-11T12:43:07.630Z,47.8
2023-05-11T12:48:25.837Z,47.7
2023-05-11T12:53:43.802Z,47.5
2023-05-11T12:59:01.993Z,47.5
2023-05-11T13:04:21.762Z,47.5
2023-05-11T13:09:39.956Z,48.3
2023-05-11T13:14:42.530Z,48.4
2023-05-11T13:20:00.978Z,47.6
2023-05-11T13:25:20.536Z,48.3
2023-05-11T13:30:39.491Z,48.7
2023-05-11T13:35:57.881Z,49.3
2023-05-11T13:41:16.304Z,49
2023-05-11T13:46:34.932Z,48.8
2023-05-11T13:51:53.772Z,48.9
2023-05-11T13:57:12.324Z,48.8
2023-05-11T14:02:30.764Z,48.5
2023-05-11T14:07:50.005Z,48.8
2023-05-11T14:13:08.327Z,48.6
2023-05-11T14:18:27.520Z,48.9
2023-05-11T14:24:12.727Z,48.1
2023-05-11T14:29:30.904Z,48.1
2023-05-11T14:34:49.078Z,48.9
2023-05-11T14:40:07.526Z,49
2023-05-11T14:45:25.743Z,48
2023-05-11T14:50:44.194Z,47.9
2023-05-11T14:56:02.547Z,48.8
2023-05-11T15:01:20.873Z,48.5
2023-05-11T15:06:39.654Z,48.7
2023-05-11T15:11:58.035Z,48.7
2023-05-11T15:17:16.194Z,48.7
2023-05-11T15:22:34.540Z,47.9
2023-05-11T15:27:53.122Z,48.8
2023-05-11T15:33:12.051Z,48
2023-05-11T15:38:30.128Z,47.8
2023-05-11T15:43:48.439Z,48.3
2023-05-11T15:49:06.628Z,48.1
2023-05-11T15:54:24.834Z,47.3
2023-05-11T15:59:43.506Z,47.9
2023-05-11T16:05:02.112Z,47.1
2023-05-11T16:10:23.266Z,47.4
2023-05-11T16:15:41.665Z,47.6
2023-05-11T16:21:00.150Z,47.2
2023-05-11T16:26:18.526Z,47.5
2023-05-11T16:31:37.333Z,47.1
2023-05-11T16:36:59.840Z,47.7
2023-05-11T16:42:20.873Z,46.9
2023-05-11T16:47:39.791Z,46.6
2023-05-11T16:52:57.991Z,47.7
2023-05-11T16:58:00.769Z,47.7
2023-05-11T17:03:19.814Z,48
2023-05-11T17:08:38.408Z,47.9
2023-05-11T17:13:56.812Z,47.4
2023-05-11T17:19:15.328Z,48
2023-05-11T17:24:34.455Z,47.4
2023-05-11T17:29:53.006Z,48.1
2023-05-11T17:35:11.281Z,48
2023-05-11T17:40:29.611Z,48.4
2023-05-11T17:45:48.115Z,47.8
2023-05-11T17:51:06.424Z,47.3
2023-05-11T17:56:24.792Z,47.4
2023-05-11T18:01:45.704Z,44.6
2023-05-11T18:07:05.228Z,47.3
2023-05-11T18:12:26.390Z,46.6
2023-05-11T18:17:46.811Z,46.6
2023-05-11T18:23:08.337Z,46.4
2023-05-11T18:28:26.351Z,45.9
2023-05-11T18:33:46.096Z,46.3
2023-05-11T18:39:04.439Z,47.3
2023-05-11T18:44:23.948Z,47.3
2023-05-11T18:49:58.757Z,46.9
2023-05-11T18:55:18.359Z,47.4
2023-05-11T19:00:42.878Z,47.5
2023-05-11T19:06:02.408Z,48.3
2023-05-11T19:11:20.706Z,48.5
2023-05-11T19:16:25.710Z,48.5
2023-05-11T19:21:47.875Z,47.7
2023-05-11T19:27:21.052Z,47.2
2023-05-11T19:32:39.404Z,48.4
2023-05-11T19:37:57.701Z,47.9
2023-05-11T19:43:16.054Z,48.1
2023-05-11T19:48:34.020Z,49.1
2023-05-11T19:53:52.369Z,48.7
2023-05-11T19:59:10.897Z,48.3
2023-05-11T20:04:29.125Z,48.7
2023-05-11T20:09:47.712Z,49.5
2023-05-11T20:15:05.899Z,48.7
2023-05-11T20:20:24.442Z,49.4
2023-05-11T20:25:43.176Z,48.9
2023-05-11T20:31:01.805Z,49.6
2023-05-11T20:36:20.164Z,48.7
2023-05-11T20:41:38.731Z,49
2023-05-11T20:46:57.273Z,48.6
2023-05-11T20:52:15.494Z,48.5
2023-05-11T20:57:34.066Z,49.5
2023-05-11T21:02:53.111Z,48.5
2023-05-11T21:08:11.794Z,50.1
2023-05-11T21:13:30.171Z,49
2023-05-11T21:18:49.128Z,49.9
2023-05-11T21:24:07.346Z,49.4
2023-05-11T21:29:25.748Z,48.8
2023-05-11T21:34:44.145Z,49
2023-05-11T21:40:02.292Z,48.8
2023-05-11T21:45:20.804Z,49.6
2023-05-11T21:50:39.070Z,49.1
2023-05-11T21:55:57.308Z,48.9
2023-05-11T22:01:15.904Z,49.9
2023-05-11T22:06:34.187Z,50
2023-05-11T22:11:52.515Z,50
2023-05-11T22:17:10.694Z,50.2
2023-05-11T22:22:29.214Z,49.3
2023-05-11T22:27:47.653Z,49.7
2023-05-11T22:33:06.393Z,50.2
2023-05-11T22:38:24.729Z,50.1
2023-05-11T22:43:43.022Z,50.4
2023-05-11T22:49:01.406Z,49.5
2023-05-11T22:54:19.802Z,50
2023-05-11T22:59:38.190Z,50.2
2023-05-11T23:04:56.507Z,50.3
2023-05-11T23:10:14.935Z,50.5
2023-05-11T23:15:33.941Z,50.4
2023-05-11T23:20:52.102Z,49.6
2023-05-11T23:26:10.456Z,49.7
2023-05-11T23:31:28.866Z,49.7
2023-05-11T23:36:47.251Z,49.9
2023-05-11T23:42:05.234Z,50.5
2023-05-11T23:47:23.916Z,50.4
2023-05-11T23:52:42.143Z,49.8
2023-05-11T23:58:00.754Z,50.5
